Time;durP1;ratioP1;P1;durP2;ratioP2;P2;SDS_P1;SDS_P2;PMS_P1;PMS_P2;Temp;Humidity;BMP_temperature;BMP_pressure;BME280_temperature;BME280_humidity;BME280_pressure;Samples;Min_cycle;Max_cycle;Signal;HPM_P1;HPM_P2
2021/08/23 00:00:51;;;;;;;;;7.33;7.33;;;;;;;;5073199;28;52187;-54
2021/08/23 00:03:16;;;;;;;;;6.67;6.67;;;;;;;;5055098;28;50925;-55
2021/08/23 00:05:42;;;;;;;;;8.33;8.33;;;;;;;;5073568;28;51041;-56
2021/08/23 00:08:07;;;;;;;;;9.00;8.33;;;;;;;;5073852;28;51378;-55
2021/08/23 00:10:32;;;;;;;;;6.67;6.67;;;;;;;;5073390;28;53157;-55
2021/08/23 00:12:57;;;;;;;;;5.33;5.33;;;;;;;;5073548;28;50890;-55
2021/08/23 00:15:23;;;;;;;;;5.67;5.67;;;;;;;;5073588;28;51141;-54
2021/08/23 00:17:48;;;;;;;;;8.00;6.67;;;;;;;;5073569;28;50870;-55
2021/08/23 00:20:16;;;;;;;;;5.33;5.33;;;;;;;;5054951;28;54260;-56
2021/08/23 00:22:54;;;;;;;;;5.00;5.00;;;;;;;;5073564;28;51089;-55
2021/08/23 00:25:20;;;;;;;;;6.00;6.00;;;;;;;;5057114;28;51142;-55
2021/08/23 00:27:45;;;;;;;;;5.33;5.33;;;;;;;;5055277;28;51318;-56
2021/08/23 00:30:11;;;;;;;;;5.67;5.33;;;;;;;;5072960;28;51006;-53
2021/08/23 00:32:37;;;;;;;;;7.33;6.00;;;;;;;;5073242;28;50829;-54
2021/08/23 00:35:02;;;;;;;;;5.33;5.33;;;;;;;;5072998;28;51097;-55
2021/08/23 00:37:27;;;;;;;;;6.33;5.00;;;;;;;;5071834;28;51370;-55
2021/08/23 00:39:53;;;;;;;;;7.00;6.67;;;;;;;;5072915;28;52110;-55
2021/08/23 00:42:18;;;;;;;;;4.67;4.67;;;;;;;;5073041;28;50926;-55
2021/08/23 00:44:44;;;;;;;;;8.33;6.33;;;;;;;;5073161;28;51069;-55
2021/08/23 00:47:10;;;;;;;;;6.67;6.33;;;;;;;;5072449;28;50931;-55
2021/08/23 00:49:35;;;;;;;;;5.00;5.00;;;;;;;;5072719;28;51024;-55
2021/08/23 00:52:01;;;;;;;;;4.67;4.67;;;;;;;;5072786;28;51093;-52
2021/08/23 00:54:26;;;;;;;;;7.00;6.00;;;;;;;;5072654;28;51046;-56
2021/08/23 00:56:52;;;;;;;;;7.00;6.00;;;;;;;;5073013;28;51107;-52
2021/08/23 00:59:24;;;;;;;;;6.33;5.33;;;;;;;;5072727;28;51177;-55
2021/08/23 01:02:09;;;;;;;;;5.67;5.67;;;;;;;;5062059;28;50966;-55
2021/08/23 01:04:40;;;;;;;;;5.67;5.67;;;;;;;;5026585;28;51074;-54
2021/08/23 01:07:08;;;;;;;;;5.67;5.67;;;;;;;;5072820;28;51021;-52
2021/08/23 01:09:35;;;;;;;;;6.33;5.33;;;;;;;;5072507;28;52160;-55
2021/08/23 01:12:02;;;;;;;;;6.33;6.33;;;;;;;;5072557;28;51187;-55
2021/08/23 01:14:27;;;;;;;;;7.67;5.33;;;;;;;;5054388;28;51116;-54
2021/08/23 01:16:52;;;;;;;;;7.33;6.33;;;;;;;;5072111;28;51269;-54
2021/08/23 01:19:18;;;;;;;;;7.00;6.00;;;;;;;;5072360;28;51826;-54
2021/08/23 01:21:44;;;;;;;;;5.00;4.67;;;;;;;;5072318;28;51201;-52
2021/08/23 01:24:13;;;;;;;;;5.67;5.67;;;;;;;;5054330;28;51179;-55
2021/08/23 01:26:43;;;;;;;;;7.67;6.33;;;;;;;;5072562;28;51251;-54
2021/08/23 01:29:08;;;;;;;;;4.67;4.67;;;;;;;;5072179;28;51291;-54
2021/08/23 01:31:48;;;;;;;;;2.67;2.67;;;;;;;;5071898;28;50942;-54
2021/08/23 01:34:13;;;;;;;;;5.67;5.67;;;;;;;;5072528;28;51200;-54
2021/08/23 01:36:39;;;;;;;;;6.33;5.33;;;;;;;;5072418;28;51218;-54
2021/08/23 01:39:04;;;;;;;;;6.67;6.67;;;;;;;;5063243;27;52338;-54
2021/08/23 01:41:29;;;;;;;;;4.67;4.67;;;;;;;;5068589;28;51013;-55
2021/08/23 01:43:54;;;;;;;;;6.33;5.33;;;;;;;;5072316;28;50937;-53
2021/08/23 01:46:20;;;;;;;;;4.33;3.33;;;;;;;;5054201;28;51216;-52
2021/08/23 01:48:46;;;;;;;;;8.00;6.67;;;;;;;;5071685;28;51045;-52
2021/08/23 01:51:11;;;;;;;;;5.00;5.00;;;;;;;;5072071;28;51262;-54
2021/08/23 01:53:36;;;;;;;;;8.33;6.67;;;;;;;;5071957;28;51018;-53
2021/08/23 01:56:02;;;;;;;;;7.00;5.67;;;;;;;;5072366;28;51093;-54
2021/08/23 01:58:27;;;;;;;;;5.33;5.33;;;;;;;;5068236;28;51011;-53
2021/08/23 02:00:52;;;;;;;;;7.00;6.33;;;;;;;;5071177;28;51135;-54
2021/08/23 02:03:18;;;;;;;;;6.33;6.00;;;;;;;;5075397;28;51032;-54
2021/08/23 02:05:43;;;;;;;;;6.67;6.00;;;;;;;;5067639;28;51181;-54
2021/08/23 02:08:08;;;;;;;;;5.67;5.33;;;;;;;;5075328;28;51090;-53
2021/08/23 02:10:34;;;;;;;;;7.33;5.33;;;;;;;;5075250;28;51198;-53
2021/08/23 02:12:59;;;;;;;;;5.33;5.00;;;;;;;;5075156;28;51028;-53
2021/08/23 02:15:24;;;;;;;;;5.67;5.67;;;;;;;;5075522;28;51288;-54
2021/08/23 02:17:49;;;;;;;;;7.33;6.33;;;;;;;;5074629;28;52094;-52
2021/08/23 02:20:15;;;;;;;;;6.00;5.67;;;;;;;;5074939;28;51287;-53
2021/08/23 02:22:41;;;;;;;;;6.33;6.33;;;;;;;;5075352;28;50891;-53
2021/08/23 02:25:07;;;;;;;;;5.67;4.00;;;;;;;;5075268;28;51417;-54
2021/08/23 02:27:33;;;;;;;;;6.33;6.00;;;;;;;;5074827;28;51831;-52
2021/08/23 02:29:58;;;;;;;;;6.00;6.00;;;;;;;;5074925;28;51036;-53
2021/08/23 02:32:23;;;;;;;;;9.67;8.33;;;;;;;;5056563;28;51175;-54
2021/08/23 02:34:48;;;;;;;;;7.00;6.33;;;;;;;;5075332;28;50838;-54
2021/08/23 02:37:13;;;;;;;;;6.00;6.00;;;;;;;;5056516;28;51966;-54
2021/08/23 02:39:39;;;;;;;;;5.33;5.33;;;;;;;;5074886;28;51129;-53
2021/08/23 02:42:04;;;;;;;;;8.33;7.00;;;;;;;;5074864;28;51239;-53
2021/08/23 02:44:29;;;;;;;;;5.67;5.00;;;;;;;;5074591;28;50828;-53
2021/08/23 02:46:54;;;;;;;;;6.00;5.67;;;;;;;;5056062;28;52984;-54
2021/08/23 02:49:19;;;;;;;;;6.33;5.33;;;;;;;;5074858;28;51135;-55
2021/08/23 02:51:45;;;;;;;;;7.67;7.67;;;;;;;;5074801;28;50921;-53
2021/08/23 02:54:11;;;;;;;;;5.67;5.00;;;;;;;;5074871;28;50917;-55
2021/08/23 02:56:36;;;;;;;;;5.00;5.00;;;;;;;;5056327;28;51691;-55
2021/08/23 02:59:01;;;;;;;;;7.33;7.33;;;;;;;;5074654;28;51076;-55
2021/08/23 03:01:27;;;;;;;;;6.67;6.67;;;;;;;;5074791;28;51198;-55
2021/08/23 03:03:52;;;;;;;;;6.00;6.00;;;;;;;;5074585;28;51029;-55
2021/08/23 03:06:17;;;;;;;;;7.67;6.67;;;;;;;;5074330;28;51081;-57
2021/08/23 03:08:42;;;;;;;;;6.33;6.00;;;;;;;;5074337;28;51083;-55
2021/08/23 03:11:08;;;;;;;;;9.33;8.00;;;;;;;;5074535;28;51310;-56
2021/08/23 03:13:34;;;;;;;;;8.67;7.00;;;;;;;;5074546;28;51177;-55
2021/08/23 03:15:59;;;;;;;;;7.33;7.00;;;;;;;;5074055;28;51957;-55
2021/08/23 03:18:24;;;;;;;;;9.33;8.00;;;;;;;;5074038;28;50995;-55
2021/08/23 03:20:49;;;;;;;;;8.67;8.00;;;;;;;;5074383;28;51073;-55
2021/08/23 03:23:14;;;;;;;;;7.00;7.00;;;;;;;;5074572;28;50900;-54
2021/08/23 03:25:40;;;;;;;;;8.00;7.00;;;;;;;;5074130;28;51277;-54
2021/08/23 03:28:05;;;;;;;;;5.67;5.67;;;;;;;;5074452;28;50958;-55
2021/08/23 03:30:30;;;;;;;;;9.33;6.67;;;;;;;;5074270;28;50915;-54
2021/08/23 03:32:55;;;;;;;;;7.33;7.33;;;;;;;;5074423;28;51017;-55
2021/08/23 03:35:20;;;;;;;;;6.00;6.00;;;;;;;;5074225;28;52218;-53
2021/08/23 03:37:46;;;;;;;;;8.00;7.00;;;;;;;;5074017;28;51102;-53
2021/08/23 03:40:11;;;;;;;;;7.00;7.00;;;;;;;;5069550;27;51093;-53
2021/08/23 03:42:36;;;;;;;;;9.00;7.67;;;;;;;;5073858;28;50894;-51
2021/08/23 03:45:02;;;;;;;;;7.67;7.67;;;;;;;;5073581;28;51351;-53
2021/08/23 03:47:27;;;;;;;;;7.67;6.33;;;;;;;;5073492;28;50969;-53
2021/08/23 03:49:53;;;;;;;;;7.00;6.00;;;;;;;;5073659;28;51095;-53
2021/08/23 03:52:18;;;;;;;;;10.33;8.33;;;;;;;;5074055;28;51165;-53
2021/08/23 03:54:43;;;;;;;;;7.33;7.33;;;;;;;;5054948;28;52947;-54
2021/08/23 03:57:08;;;;;;;;;8.67;8.00;;;;;;;;5073750;28;50941;-56
2021/08/23 03:59:33;;;;;;;;;7.33;7.33;;;;;;;;5073707;28;51123;-56
2021/08/23 04:01:59;;;;;;;;;9.33;8.67;;;;;;;;5055464;28;50943;-54
2021/08/23 04:04:24;;;;;;;;;8.67;8.00;;;;;;;;5073430;28;51808;-55
2021/08/23 04:06:49;;;;;;;;;6.67;6.67;;;;;;;;5073490;28;50909;-53
2021/08/23 04:09:14;;;;;;;;;11.00;8.00;;;;;;;;5073540;28;51114;-54
2021/08/23 04:11:40;;;;;;;;;7.67;6.67;;;;;;;;5073727;28;51052;-55
2021/08/23 04:14:05;;;;;;;;;6.67;6.33;;;;;;;;5072935;28;51173;-55
2021/08/23 04:16:31;;;;;;;;;6.33;6.33;;;;;;;;5073075;28;51099;-55
2021/08/23 04:18:56;;;;;;;;;6.67;6.67;;;;;;;;5072815;28;50926;-53
2021/08/23 04:21:21;;;;;;;;;6.67;6.67;;;;;;;;5072913;28;51071;-55
2021/08/23 04:23:46;;;;;;;;;7.33;6.67;;;;;;;;5072928;28;51100;-53
2021/08/23 04:26:11;;;;;;;;;10.00;9.00;;;;;;;;5073357;28;51204;-53
2021/08/23 04:28:37;;;;;;;;;9.00;8.00;;;;;;;;5073265;28;51240;-52
2021/08/23 04:31:02;;;;;;;;;11.00;9.67;;;;;;;;5073496;28;50877;-53
2021/08/23 04:33:27;;;;;;;;;8.00;8.00;;;;;;;;5072734;28;51854;-55
2021/08/23 04:35:52;;;;;;;;;9.00;9.00;;;;;;;;5073275;28;51029;-53
2021/08/23 04:38:18;;;;;;;;;10.00;8.00;;;;;;;;5073236;28;51057;-55
2021/08/23 04:40:43;;;;;;;;;11.67;11.33;;;;;;;;5073320;28;51008;-53
2021/08/23 04:43:08;;;;;;;;;11.33;10.33;;;;;;;;5071825;28;53339;-55
2021/08/23 04:45:33;;;;;;;;;9.33;9.00;;;;;;;;5054736;28;50997;-55
2021/08/23 04:47:59;;;;;;;;;10.00;8.33;;;;;;;;5072580;28;51266;-55
2021/08/23 04:50:24;;;;;;;;;9.00;9.00;;;;;;;;5073232;28;51072;-54
2021/08/23 04:52:49;;;;;;;;;11.33;9.33;;;;;;;;5072682;28;51108;-54
2021/08/23 04:55:15;;;;;;;;;10.67;9.00;;;;;;;;5072563;28;51079;-53
2021/08/23 04:57:40;;;;;;;;;11.67;10.33;;;;;;;;5072693;28;50890;-53
2021/08/23 05:00:09;;;;;;;;;9.33;9.00;;;;;;;;5072409;28;51296;-53
2021/08/23 05:02:35;;;;;;;;;12.00;11.00;;;;;;;;5071977;28;51129;-53
2021/08/23 05:05:00;;;;;;;;;12.00;10.67;;;;;;;;5072402;28;51197;-54
2021/08/23 05:07:25;;;;;;;;;11.67;11.00;;;;;;;;5072634;28;51034;-52
2021/08/23 05:09:50;;;;;;;;;15.25;15.25;;;;;;;;5072689;28;51379;-54
2021/08/23 05:12:16;;;;;;;;;9.00;8.50;;;;;;;;5054381;28;51905;-53
2021/08/23 05:14:41;;;;;;;;;15.00;12.33;;;;;;;;5072442;28;51032;-54
2021/08/23 05:17:06;;;;;;;;;12.67;12.67;;;;;;;;5072150;28;51247;-53
2021/08/23 05:19:31;;;;;;;;;13.67;12.67;;;;;;;;5072536;28;51018;-53
2021/08/23 05:21:56;;;;;;;;;12.00;11.67;;;;;;;;5072086;28;52236;-53
2021/08/23 05:24:21;;;;;;;;;13.67;11.67;;;;;;;;5072432;28;51136;-54
2021/08/23 05:26:47;;;;;;;;;15.33;14.33;;;;;;;;5072394;28;51232;-54
2021/08/23 05:29:12;;;;;;;;;16.33;14.00;;;;;;;;5072780;28;50835;-53
2021/08/23 05:31:37;;;;;;;;;18.00;17.75;;;;;;;;5071575;28;51064;-53
2021/08/23 05:34:02;;;;;;;;;13.00;13.00;;;;;;;;5075710;27;51052;-53
2021/08/23 05:36:27;;;;;;;;;13.00;13.00;;;;;;;;5075723;28;50979;-54
2021/08/23 05:38:53;;;;;;;;;15.67;15.33;;;;;;;;5075926;28;50974;-54
2021/08/23 05:41:18;;;;;;;;;16.25;15.00;;;;;;;;5064683;27;51213;-55
2021/08/23 05:43:43;;;;;;;;;20.00;19.25;;;;;;;;5075610;28;51066;-55
2021/08/23 05:46:09;;;;;;;;;15.75;14.50;;;;;;;;5075510;28;50978;-53
2021/08/23 05:48:35;;;;;;;;;17.50;17.50;;;;;;;;5075716;28;51648;-54
2021/08/23 05:51:01;;;;;;;;;18.33;18.33;;;;;;;;5074952;28;51790;-55
2021/08/23 05:53:27;;;;;;;;;23.75;21.25;;;;;;;;5074693;28;51018;-55
2021/08/23 05:55:52;;;;;;;;;19.25;18.00;;;;;;;;5075210;28;51361;-55
2021/08/23 05:58:17;;;;;;;;;14.67;14.67;;;;;;;;5075829;28;50998;-55
2021/08/23 06:00:42;;;;;;;;;19.00;18.67;;;;;;;;5074860;28;51908;-54
2021/08/23 06:03:07;;;;;;;;;18.33;17.33;;;;;;;;5074820;28;51134;-55
2021/08/23 06:05:34;;;;;;;;;16.50;15.50;;;;;;;;5075246;28;50885;-53
2021/08/23 06:07:59;;;;;;;;;15.67;15.33;;;;;;;;5075331;28;50855;-55
2021/08/23 06:10:24;;;;;;;;;18.67;15.67;;;;;;;;5074988;28;51728;-55
2021/08/23 06:12:50;;;;;;;;;15.00;12.33;;;;;;;;5056933;28;51251;-56
2021/08/23 06:15:15;;;;;;;;;18.33;18.00;;;;;;;;5075435;28;51120;-55
2021/08/23 06:17:40;;;;;;;;;17.00;15.00;;;;;;;;5075141;28;51290;-55
2021/08/23 06:20:06;;;;;;;;;18.67;17.67;;;;;;;;5074603;28;51364;-55
2021/08/23 06:22:32;;;;;;;;;19.00;18.33;;;;;;;;5074613;28;51139;-55
2021/08/23 06:24:57;;;;;;;;;17.67;17.33;;;;;;;;5074448;28;50981;-53
2021/08/23 06:27:22;;;;;;;;;16.33;14.33;;;;;;;;5075051;28;51025;-53
2021/08/23 06:29:48;;;;;;;;;16.67;15.67;;;;;;;;5074258;28;51140;-55
2021/08/23 06:32:13;;;;;;;;;16.67;16.33;;;;;;;;5074071;28;51073;-55
2021/08/23 06:34:38;;;;;;;;;18.00;17.00;;;;;;;;5074440;28;51044;-53
2021/08/23 06:37:03;;;;;;;;;16.67;16.00;;;;;;;;5074847;28;51473;-53
2021/08/23 06:39:28;;;;;;;;;18.00;16.00;;;;;;;;5074482;28;51833;-53
2021/08/23 06:41:54;;;;;;;;;16.00;15.33;;;;;;;;5074433;28;50982;-55
2021/08/23 06:44:20;;;;;;;;;19.00;16.67;;;;;;;;5073926;28;51107;-54
2021/08/23 06:46:45;;;;;;;;;14.33;14.00;;;;;;;;5074446;28;51135;-53
2021/08/23 06:49:10;;;;;;;;;15.00;15.00;;;;;;;;5073882;28;52023;-56
2021/08/23 06:51:36;;;;;;;;;16.67;16.00;;;;;;;;5074054;28;50894;-54
2021/08/23 06:54:01;;;;;;;;;13.33;13.00;;;;;;;;5073971;28;51039;-54
2021/08/23 06:56:27;;;;;;;;;13.33;13.00;;;;;;;;5074292;28;50873;-56
2021/08/23 06:58:52;;;;;;;;;14.00;13.33;;;;;;;;5055642;28;52129;-55
2021/08/23 07:01:18;;;;;;;;;13.67;12.33;;;;;;;;5073488;28;51003;-55
2021/08/23 07:03:43;;;;;;;;;12.00;11.33;;;;;;;;5074118;28;50975;-55
2021/08/23 07:06:08;;;;;;;;;14.00;13.00;;;;;;;;5073634;28;51302;-55
2021/08/23 07:08:33;;;;;;;;;15.67;14.67;;;;;;;;5073810;28;52222;-55
2021/08/23 07:11:01;;;;;;;;;11.33;10.00;;;;;;;;5073953;28;50853;-55
2021/08/23 07:13:26;;;;;;;;;13.25;12.75;;;;;;;;5055876;28;51109;-56
2021/08/23 07:15:51;;;;;;;;;8.33;8.00;;;;;;;;5055627;28;51285;-55
2021/08/23 07:18:16;;;;;;;;;13.67;13.00;;;;;;;;5073076;28;51960;-55
2021/08/23 07:20:41;;;;;;;;;13.33;13.33;;;;;;;;5072745;28;51070;-53
2021/08/23 07:23:07;;;;;;;;;9.67;9.67;;;;;;;;5073099;28;51037;-56
2021/08/23 07:25:32;;;;;;;;;13.00;12.33;;;;;;;;5073346;28;50917;-53
2021/08/23 07:27:59;;;;;;;;;15.00;15.00;;;;;;;;5072942;28;51069;-56
2021/08/23 07:30:25;;;;;;;;;14.00;11.67;;;;;;;;5072675;28;51025;-55
2021/08/23 07:32:50;;;;;;;;;17.00;16.00;;;;;;;;5072674;28;51020;-54
2021/08/23 07:35:15;;;;;;;;;15.00;12.00;;;;;;;;5073044;28;51397;-54
2021/08/23 07:37:44;;;;;;;;;18.00;17.25;;;;;;;;5072753;28;51015;-53
2021/08/23 07:40:10;;;;;;;;;12.33;12.00;;;;;;;;5072737;28;50967;-54
2021/08/23 07:42:35;;;;;;;;;14.33;13.33;;;;;;;;5058682;27;51167;-54
2021/08/23 07:45:00;;;;;;;;;9.67;8.00;;;;;;;;5072224;28;51336;-54
2021/08/23 07:47:25;;;;;;;;;14.75;13.00;;;;;;;;5072565;28;52074;-54
2021/08/23 07:49:51;;;;;;;;;15.33;14.33;;;;;;;;5072507;28;51040;-55
2021/08/23 07:52:16;;;;;;;;;12.00;11.00;;;;;;;;5073113;28;51127;-56
2021/08/23 07:54:41;;;;;;;;;11.67;11.33;;;;;;;;5054344;28;51411;-54
2021/08/23 07:57:06;;;;;;;;;14.33;13.67;;;;;;;;5053082;28;52040;-54
2021/08/23 07:59:32;;;;;;;;;13.00;12.67;;;;;;;;5072392;28;51045;-54
2021/08/23 08:01:57;;;;;;;;;16.67;14.00;;;;;;;;5072234;28;51601;-54
2021/08/23 08:04:22;;;;;;;;;14.33;13.33;;;;;;;;5054325;28;50991;-57
2021/08/23 08:06:47;;;;;;;;;13.33;12.67;;;;;;;;5072001;28;52926;-55
2021/08/23 08:09:13;;;;;;;;;14.67;13.67;;;;;;;;5072121;28;51072;-53
2021/08/23 08:11:38;;;;;;;;;11.33;10.00;;;;;;;;5072480;28;50944;-55
2021/08/23 08:14:04;;;;;;;;;14.67;13.33;;;;;;;;5071628;28;51309;-54
2021/08/23 08:16:29;;;;;;;;;15.00;14.67;;;;;;;;5071828;28;51013;-54
2021/08/23 08:18:55;;;;;;;;;15.33;14.33;;;;;;;;5072007;28;51025;-56
2021/08/23 08:21:20;;;;;;;;;12.00;11.33;;;;;;;;5072124;28;51085;-53
2021/08/23 08:23:46;;;;;;;;;13.33;13.00;;;;;;;;5072416;28;50874;-54
2021/08/23 08:26:11;;;;;;;;;13.00;11.67;;;;;;;;5071937;28;52188;-54
2021/08/23 08:28:36;;;;;;;;;13.00;11.67;;;;;;;;5072062;28;50870;-55
2021/08/23 08:31:01;;;;;;;;;12.00;11.67;;;;;;;;5072415;28;50902;-54
2021/08/23 08:33:26;;;;;;;;;13.00;12.00;;;;;;;;5071980;28;51036;-52
2021/08/23 08:35:58;;;;;;;;;11.33;11.33;;;;;;;;5072187;28;51996;-55
2021/08/23 08:38:23;;;;;;;;;10.67;10.67;;;;;;;;5072006;28;51333;-54
2021/08/23 08:40:48;;;;;;;;;11.67;10.67;;;;;;;;5072064;28;50948;-54
2021/08/23 08:43:14;;;;;;;;;10.00;10.00;;;;;;;;5071860;28;51221;-54
2021/08/23 08:45:39;;;;;;;;;7.67;7.67;;;;;;;;5071582;28;51239;-55
2021/08/23 08:48:04;;;;;;;;;9.67;9.33;;;;;;;;5071255;28;50989;-54
2021/08/23 08:50:30;;;;;;;;;11.00;10.00;;;;;;;;5044975;28;50914;-55
2021/08/23 08:52:56;;;;;;;;;10.00;9.33;;;;;;;;5052752;28;50860;-58
2021/08/23 08:55:21;;;;;;;;;9.67;8.33;;;;;;;;5052791;28;51239;-56
2021/08/23 08:57:47;;;;;;;;;9.00;7.33;;;;;;;;5071119;28;50915;-56
2021/08/23 09:00:12;;;;;;;;;7.33;7.33;;;;;;;;5071495;28;51069;-55
2021/08/23 09:02:37;;;;;;;;;9.67;9.67;;;;;;;;5070870;28;51396;-56
2021/08/23 09:05:18;;;;;;;;;10.00;9.67;;;;;;;;5071106;28;51934;-56
2021/08/23 09:07:50;;;;;;;;;10.33;10.00;;;;;;;;5074362;28;51053;-54
2021/08/23 09:10:23;;;;;;;;;8.33;7.67;;;;;;;;5078043;28;51144;-56
2021/08/23 09:13:00;;;;;;;;;8.00;8.00;;;;;;;;5078142;28;51023;-56
2021/08/23 09:15:25;;;;;;;;;10.00;9.67;;;;;;;;5077793;28;51163;-56
2021/08/23 09:17:59;;;;;;;;;9.33;9.33;;;;;;;;5077889;28;51051;-56
2021/08/23 09:20:24;;;;;;;;;11.00;11.00;;;;;;;;5078085;28;51264;-56
2021/08/23 09:22:52;;;;;;;;;11.00;10.33;;;;;;;;5078305;28;51299;-57
2021/08/23 09:25:23;;;;;;;;;9.33;9.33;;;;;;;;5077754;28;50984;-54
2021/08/23 09:27:48;;;;;;;;;12.00;10.67;;;;;;;;5077947;28;50900;-55
2021/08/23 09:30:14;;;;;;;;;11.33;11.33;;;;;;;;5059127;28;50924;-55
2021/08/23 09:32:49;;;;;;;;;9.67;9.67;;;;;;;;5078098;27;51180;-54
2021/08/23 09:35:35;;;;;;;;;10.67;10.33;;;;;;;;5077740;28;51985;-54
2021/08/23 09:38:00;;;;;;;;;9.00;9.00;;;;;;;;5077541;28;51043;-55
2021/08/23 09:40:27;;;;;;;;;9.67;9.00;;;;;;;;5078401;28;51164;-55
2021/08/23 09:42:56;;;;;;;;;14.00;12.33;;;;;;;;5070978;27;51207;-53
2021/08/23 09:45:21;;;;;;;;;7.67;7.33;;;;;;;;5077637;28;52006;-56
2021/08/23 09:47:57;;;;;;;;;10.00;10.00;;;;;;;;5077188;28;50859;-55
2021/08/23 09:50:22;;;;;;;;;12.33;11.33;;;;;;;;5077704;28;51185;-55
2021/08/23 09:52:47;;;;;;;;;8.33;8.33;;;;;;;;5059723;28;50943;-55
2021/08/23 09:55:13;;;;;;;;;11.33;11.00;;;;;;;;5077371;28;52277;-54
2021/08/23 09:57:39;;;;;;;;;12.00;9.33;;;;;;;;5077520;28;50985;-54
2021/08/23 10:00:07;;;;;;;;;9.00;9.00;;;;;;;;5077979;28;50904;-55
2021/08/23 10:02:33;;;;;;;;;8.00;8.00;;;;;;;;5076988;28;51265;-55
2021/08/23 10:04:59;;;;;;;;;10.00;9.33;;;;;;;;5077176;28;53014;-55
2021/08/23 10:07:27;;;;;;;;;11.00;10.00;;;;;;;;5077257;28;51044;-54
2021/08/23 10:09:52;;;;;;;;;9.33;9.33;;;;;;;;5077920;28;50945;-54
2021/08/23 10:12:17;;;;;;;;;10.33;9.00;;;;;;;;5075030;28;51245;-54
2021/08/23 10:14:42;;;;;;;;;7.00;7.00;;;;;;;;5076155;28;51400;-54
2021/08/23 10:17:08;;;;;;;;;10.33;6.67;;;;;;;;5076688;28;50879;-56
2021/08/23 10:19:33;;;;;;;;;9.00;8.00;;;;;;;;5074338;28;50902;-55
2021/08/23 10:21:59;;;;;;;;;7.67;7.67;;;;;;;;5074021;28;50920;-56
2021/08/23 10:24:26;;;;;;;;;8.00;8.00;;;;;;;;5073876;28;51255;-56
2021/08/23 10:26:51;;;;;;;;;9.67;9.00;;;;;;;;5073739;28;51154;-56
2021/08/23 10:29:16;;;;;;;;;8.67;8.33;;;;;;;;5073903;28;50989;-54
2021/08/23 10:31:43;;;;;;;;;7.33;7.00;;;;;;;;5073846;28;51390;-55
2021/08/23 10:34:16;;;;;;;;;10.00;10.00;;;;;;;;5073778;28;51450;-56
2021/08/23 10:36:42;;;;;;;;;9.33;9.33;;;;;;;;5073657;28;51074;-56
2021/08/23 10:39:07;;;;;;;;;8.00;8.00;;;;;;;;5073654;28;50994;-53
2021/08/23 10:41:32;;;;;;;;;8.67;8.00;;;;;;;;5073507;28;51074;-57
2021/08/23 10:44:00;;;;;;;;;9.00;8.00;;;;;;;;5055079;28;53706;-55
2021/08/23 10:46:29;;;;;;;;;7.67;7.00;;;;;;;;5073306;28;51250;-55
2021/08/23 10:49:04;;;;;;;;;7.33;7.00;;;;;;;;5073432;28;51069;-55
2021/08/23 10:51:33;;;;;;;;;9.00;8.00;;;;;;;;5073788;28;51235;-58
2021/08/23 10:53:59;;;;;;;;;9.33;8.67;;;;;;;;5073353;28;51677;-55
2021/08/23 10:56:32;;;;;;;;;10.00;9.00;;;;;;;;5073417;28;50998;-57
2021/08/23 10:58:57;;;;;;;;;9.33;8.33;;;;;;;;5073496;28;50994;-54
2021/08/23 11:01:23;;;;;;;;;10.67;10.67;;;;;;;;5072987;28;51404;-56
2021/08/23 11:04:01;;;;;;;;;17.00;14.67;;;;;;;;5054812;28;52446;-55
2021/08/23 11:06:27;;;;;;;;;10.00;10.00;;;;;;;;5053667;28;50960;-56
2021/08/23 11:08:52;;;;;;;;;12.67;12.33;;;;;;;;5073077;28;51090;-53
2021/08/23 11:11:18;;;;;;;;;13.00;12.00;;;;;;;;5055212;28;51460;-54
2021/08/23 11:13:43;;;;;;;;;12.00;11.00;;;;;;;;5072879;28;51081;-56
2021/08/23 11:16:09;;;;;;;;;13.33;13.00;;;;;;;;5073085;28;50953;-55
2021/08/23 11:18:42;;;;;;;;;14.33;13.67;;;;;;;;5072902;28;51041;-54
2021/08/23 11:21:07;;;;;;;;;10.00;10.00;;;;;;;;5073252;28;51272;-54
2021/08/23 11:23:33;;;;;;;;;10.33;10.33;;;;;;;;5072792;28;52633;-55
2021/08/23 11:26:00;;;;;;;;;18.00;16.00;;;;;;;;5073288;28;50881;-53
2021/08/23 11:28:27;;;;;;;;;12.00;11.67;;;;;;;;5073150;28;51068;-54
2021/08/23 11:30:56;;;;;;;;;12.33;11.33;;;;;;;;5072924;28;51095;-55
2021/08/23 11:33:24;;;;;;;;;11.67;11.67;;;;;;;;5072643;28;51940;-53
2021/08/23 11:35:49;;;;;;;;;8.33;8.00;;;;;;;;5072810;28;51108;-54
2021/08/23 11:38:14;;;;;;;;;14.33;13.33;;;;;;;;5072626;28;50893;-56
2021/08/23 11:40:40;;;;;;;;;10.00;10.00;;;;;;;;5073226;28;50843;-56
2021/08/23 11:43:08;;;;;;;;;20.00;19.67;;;;;;;;5070491;27;51226;-54
2021/08/23 11:45:34;;;;;;;;;11.33;11.33;;;;;;;;5061723;28;51034;-56
2021/08/23 11:48:01;;;;;;;;;12.00;12.00;;;;;;;;5072454;28;51190;-55
2021/08/23 11:50:26;;;;;;;;;11.67;11.33;;;;;;;;5072679;28;50843;-55
2021/08/23 11:52:54;;;;;;;;;11.33;11.33;;;;;;;;5072116;28;52233;-53
2021/08/23 11:55:36;;;;;;;;;10.00;9.67;;;;;;;;5072338;28;50887;-56
2021/08/23 11:58:05;;;;;;;;;10.00;10.00;;;;;;;;5072229;28;50851;-55
2021/08/23 12:00:31;;;;;;;;;8.67;8.67;;;;;;;;5071826;28;51263;-55
2021/08/23 12:03:15;;;;;;;;;10.67;10.67;;;;;;;;5052766;28;52641;-56
2021/08/23 12:05:42;;;;;;;;;11.33;11.33;;;;;;;;5062652;28;51148;-55
2021/08/23 12:08:08;;;;;;;;;11.33;11.00;;;;;;;;5072083;28;51064;-55
2021/08/23 12:10:34;;;;;;;;;9.00;9.00;;;;;;;;5072195;28;51254;-55
2021/08/23 12:13:26;;;;;;;;;10.00;9.00;;;;;;;;5071654;28;52150;-55
2021/08/23 12:16:14;;;;;;;;;9.33;9.00;;;;;;;;5067819;28;51158;-55
2021/08/23 12:18:40;;;;;;;;;9.00;9.00;;;;;;;;5060637;28;51208;-55
2021/08/23 12:21:08;;;;;;;;;10.33;10.33;;;;;;;;5071964;28;50909;-55
2021/08/23 12:23:51;;;;;;;;;10.00;10.00;;;;;;;;5071666;28;51724;-54
2021/08/23 12:26:25;;;;;;;;;11.67;10.67;;;;;;;;5072168;28;50911;-55
2021/08/23 12:28:51;;;;;;;;;9.00;9.00;;;;;;;;5072008;28;51207;-55
2021/08/23 12:31:17;;;;;;;;;10.00;10.00;;;;;;;;5071881;28;50914;-55
2021/08/23 12:33:43;;;;;;;;;9.00;9.00;;;;;;;;5071473;28;52907;-55
2021/08/23 12:36:08;;;;;;;;;12.00;12.00;;;;;;;;5071957;28;50984;-55
2021/08/23 12:38:33;;;;;;;;;14.33;12.00;;;;;;;;5071486;28;51167;-55
2021/08/23 12:40:58;;;;;;;;;10.33;10.33;;;;;;;;5072081;28;51002;-54
2021/08/23 12:43:23;;;;;;;;;13.33;12.00;;;;;;;;5070719;28;51135;-55
2021/08/23 12:45:49;;;;;;;;;10.00;10.00;;;;;;;;5071986;28;51068;-54
2021/08/23 12:48:14;;;;;;;;;9.33;8.67;;;;;;;;5070999;28;51506;-54
2021/08/23 12:50:40;;;;;;;;;10.33;10.00;;;;;;;;5071797;28;51135;-54
2021/08/23 12:53:06;;;;;;;;;16.00;15.00;;;;;;;;5071246;28;51194;-55
2021/08/23 12:55:31;;;;;;;;;16.00;14.00;;;;;;;;5071068;28;50929;-54
2021/08/23 12:57:56;;;;;;;;;16.00;14.67;;;;;;;;5071120;28;51221;-55
2021/08/23 13:00:21;;;;;;;;;15.00;15.00;;;;;;;;5071609;28;50911;-54
2021/08/23 13:02:47;;;;;;;;;12.00;12.00;;;;;;;;5070717;27;51255;-54
2021/08/23 13:05:12;;;;;;;;;15.00;15.00;;;;;;;;5070855;28;50961;-56
2021/08/23 13:07:37;;;;;;;;;16.00;14.67;;;;;;;;5071157;28;51034;-55
2021/08/23 13:10:03;;;;;;;;;14.33;14.33;;;;;;;;5071291;28;51215;-55
2021/08/23 13:12:29;;;;;;;;;13.25;12.25;;;;;;;;5070277;28;52300;-55
2021/08/23 13:14:55;;;;;;;;;19.00;16.67;;;;;;;;5070659;28;51015;-55
2021/08/23 13:17:20;;;;;;;;;15.67;15.33;;;;;;;;5070491;28;51572;-55
2021/08/23 13:19:45;;;;;;;;;14.33;14.00;;;;;;;;5071257;28;50858;-55
2021/08/23 13:22:10;;;;;;;;;19.00;16.25;;;;;;;;5070732;28;52116;-55
2021/08/23 13:24:37;;;;;;;;;15.67;14.67;;;;;;;;5070970;28;51037;-55
2021/08/23 13:27:03;;;;;;;;;13.67;13.33;;;;;;;;5070874;28;50980;-54
2021/08/23 13:29:28;;;;;;;;;17.67;16.00;;;;;;;;5070748;27;51416;-54
2021/08/23 13:31:53;;;;;;;;;15.00;14.00;;;;;;;;5070243;28;51927;-54
2021/08/23 13:34:18;;;;;;;;;15.33;14.33;;;;;;;;5070793;28;51133;-55
2021/08/23 13:36:43;;;;;;;;;14.00;14.00;;;;;;;;5052244;28;51118;-53
2021/08/23 13:39:09;;;;;;;;;15.33;14.67;;;;;;;;5052265;28;51425;-56
2021/08/23 13:41:34;;;;;;;;;11.67;11.33;;;;;;;;5069559;28;51976;-52
2021/08/23 13:43:59;;;;;;;;;11.67;11.67;;;;;;;;5067871;27;50963;-54
2021/08/23 13:46:24;;;;;;;;;15.33;14.00;;;;;;;;5066804;28;50869;-55
2021/08/23 13:48:50;;;;;;;;;16.67;15.67;;;;;;;;5070338;28;51017;-55
2021/08/23 13:51:15;;;;;;;;;16.00;16.00;;;;;;;;5069914;28;52209;-56
2021/08/23 13:53:42;;;;;;;;;12.67;12.67;;;;;;;;5070438;28;51085;-54
2021/08/23 13:56:07;;;;;;;;;17.00;15.67;;;;;;;;5073639;28;51277;-54
2021/08/23 13:58:32;;;;;;;;;18.33;17.33;;;;;;;;5074108;28;51026;-54
2021/08/23 14:00:59;;;;;;;;;16.67;16.33;;;;;;;;5073224;28;51419;-54
2021/08/23 14:03:25;;;;;;;;;14.00;13.00;;;;;;;;5074053;28;50981;-54
2021/08/23 14:05:50;;;;;;;;;15.00;15.00;;;;;;;;5073739;28;51120;-54
2021/08/23 14:08:15;;;;;;;;;15.00;15.00;;;;;;;;5074159;28;51125;-54
2021/08/23 14:10:40;;;;;;;;;16.00;15.33;;;;;;;;5073367;28;51863;-55
2021/08/23 14:13:06;;;;;;;;;16.67;15.00;;;;;;;;5073333;28;51024;-54
2021/08/23 14:15:31;;;;;;;;;14.33;14.33;;;;;;;;5073669;28;50918;-56
2021/08/23 14:17:56;;;;;;;;;19.67;19.33;;;;;;;;5073781;28;50998;-56
2021/08/23 14:20:21;;;;;;;;;18.50;18.50;;;;;;;;5073020;28;51700;-55
2021/08/23 14:22:47;;;;;;;;;18.00;16.50;;;;;;;;5073040;28;50987;-54